Time;durP1;ratioP1;P1;durP2;ratioP2;P2;SDS_P1;SDS_P2;PMS_P1;PMS_P2;Temp;Humidity;BMP_temperature;BMP_pressure;BME280_temperature;BME280_humidity;BME280_pressure;Samples;Min_cycle;Max_cycle;Signal;HPM_P1;HPM_P2
2023/06/26 00:01:36;;;;;;;6.28;5.68;;;21.20;99.90;;;;;;7334829;32;20222;-55
2023/06/26 00:05:38;;;;;;;6.18;5.55;;;21.20;99.90;;;;;;7329302;32;20279;-56
2023/06/26 00:09:40;;;;;;;7.20;5.40;;;21.10;99.90;;;;;;7333262;32;20173;-55
2023/06/26 00:13:42;;;;;;;6.47;5.15;;;21.10;99.90;;;;;;7327956;32;20170;-56
2023/06/26 00:17:44;;;;;;;7.18;5.70;;;21.10;99.90;;;;;;7341497;32;20465;-55
2023/06/26 00:21:47;;;;;;;6.00;5.30;;;21.10;99.90;;;;;;7334734;32;20591;-56
2023/06/26 00:25:49;;;;;;;7.50;5.10;;;21.10;99.90;;;;;;7339940;32;20141;-56
2023/06/26 00:29:52;;;;;;;6.60;5.78;;;21.00;99.90;;;;;;7339603;32;20431;-55
2023/06/26 00:33:54;;;;;;;7.65;5.22;;;21.00;99.90;;;;;;7337852;32;20552;-56
2023/06/26 00:37:56;;;;;;;7.30;5.75;;;21.00;99.90;;;;;;7340199;32;20604;-56
2023/06/26 00:41:58;;;;;;;6.75;5.35;;;20.90;99.90;;;;;;7337097;32;20115;-56
2023/06/26 00:45:59;;;;;;;6.05;5.20;;;20.80;99.90;;;;;;7337137;32;20138;-55
2023/06/26 00:50:01;;;;;;;7.85;5.85;;;20.60;99.90;;;;;;7336643;32;20609;-56
2023/06/26 00:54:03;;;;;;;7.07;5.65;;;20.60;99.90;;;;;;7331214;32;20191;-55
2023/06/26 00:58:05;;;;;;;5.93;5.35;;;20.40;99.90;;;;;;7338032;32;20270;-57
2023/06/26 01:02:07;;;;;;;7.82;5.80;;;20.30;99.90;;;;;;7333232;32;20398;-55
2023/06/26 01:06:12;;;;;;;7.22;6.37;;;20.20;99.90;;;;;;7334534;32;20214;-57
2023/06/26 01:10:15;;;;;;;5.65;5.15;;;20.10;99.90;;;;;;7337765;32;20225;-56
2023/06/26 01:14:17;;;;;;;6.55;5.82;;;20.10;99.90;;;;;;7322398;32;20133;-57
2023/06/26 01:18:19;;;;;;;6.37;5.78;;;20.10;99.90;;;;;;7336392;32;20187;-55
2023/06/26 01:22:35;;;;;;;6.68;5.62;;;20.00;99.90;;;;;;7337790;32;20481;-56
2023/06/26 01:26:38;;;;;;;6.87;5.60;;;20.10;99.90;;;;;;7346816;32;20194;-57
2023/06/26 01:30:43;;;;;;;8.15;6.07;;;20.00;99.90;;;;;;7325138;32;20130;-56
2023/06/26 01:34:45;;;;;;;9.93;5.65;;;19.90;99.90;;;;;;7349015;32;20285;-56
2023/06/26 01:38:47;;;;;;;7.10;5.50;;;19.90;99.90;;;;;;7346758;32;20986;-56
2023/06/26 01:42:50;;;;;;;7.35;6.10;;;19.90;99.90;;;;;;7352782;32;20103;-55
2023/06/26 01:47:17;;;;;;;6.18;5.45;;;19.80;99.90;;;;;;7331941;32;20527;-55
2023/06/26 01:51:25;;;;;;;6.63;5.93;;;19.80;99.90;;;;;;7342034;32;20107;-56
2023/06/26 01:55:44;;;;;;;6.70;5.80;;;19.80;99.90;;;;;;7342799;32;20230;-56
2023/06/26 01:59:47;;;;;;;6.78;5.62;;;19.90;99.90;;;;;;7343665;32;20429;-56
2023/06/26 02:03:49;;;;;;;7.18;5.72;;;19.80;99.90;;;;;;7341512;32;20119;-55
2023/06/26 02:07:51;;;;;;;6.18;5.57;;;19.80;99.90;;;;;;7339387;32;20469;-56
2023/06/26 02:11:53;;;;;;;6.47;5.72;;;19.80;99.90;;;;;;7324327;32;20508;-55
2023/06/26 02:15:54;;;;;;;6.25;5.55;;;19.70;99.90;;;;;;7340598;32;20106;-56
2023/06/26 02:19:56;;;;;;;5.87;5.28;;;19.70;99.90;;;;;;7333528;32;20165;-56
2023/06/26 02:23:58;;;;;;;6.97;6.10;;;19.70;99.90;;;;;;7346177;32;20384;-55
2023/06/26 02:28:00;;;;;;;6.62;5.35;;;19.70;99.90;;;;;;7344781;32;20485;-55
2023/06/26 02:32:02;;;;;;;8.38;6.07;;;19.60;99.90;;;;;;7335248;32;20308;-56
2023/06/26 02:36:04;;;;;;;6.80;5.32;;;19.60;99.90;;;;;;7339362;32;20134;-56
2023/06/26 02:40:07;;;;;;;7.85;5.82;;;19.70;99.90;;;;;;7328778;32;20134;-56
2023/06/26 02:44:11;;;;;;;7.53;6.18;;;19.60;99.90;;;;;;7335615;32;20133;-55
2023/06/26 02:48:13;;;;;;;6.80;5.68;;;19.50;99.90;;;;;;7339452;32;20127;-55
2023/06/26 02:52:15;;;;;;;6.95;5.95;;;19.60;99.90;;;;;;7330133;32;20782;-55
2023/06/26 02:56:16;;;;;;;7.50;6.37;;;19.50;99.90;;;;;;7334707;32;20111;-55
2023/06/26 03:00:18;;;;;;;7.47;5.95;;;19.50;99.90;;;;;;7330722;32;20126;-55
2023/06/26 03:04:21;;;;;;;6.55;5.85;;;19.40;99.90;;;;;;7345160;32;20118;-55
2023/06/26 03:08:23;;;;;;;6.87;5.78;;;19.30;99.90;;;;;;7332620;32;20167;-55
2023/06/26 03:12:25;;;;;;;8.50;5.70;;;19.30;99.90;;;;;;7343043;32;20267;-55
2023/06/26 03:16:27;;;;;;;8.68;6.97;;;19.30;99.90;;;;;;7330468;32;20249;-59
2023/06/26 03:20:29;;;;;;;7.65;6.65;;;19.40;99.90;;;;;;7338093;32;20563;-55
2023/06/26 03:24:31;;;;;;;7.85;6.62;;;19.50;99.90;;;;;;7335744;32;20300;-55
2023/06/26 03:28:33;;;;;;;10.70;6.90;;;19.60;99.90;;;;;;7331794;32;20119;-55
2023/06/26 03:32:34;;;;;;;8.90;6.55;;;19.50;99.90;;;;;;7342517;32;20110;-55
2023/06/26 03:36:36;;;;;;;7.72;6.43;;;19.50;99.90;;;;;;7336448;32;20135;-55
2023/06/26 03:40:38;;;;;;;9.55;5.95;;;19.60;99.90;;;;;;7337046;32;20134;-55
2023/06/26 03:44:40;;;;;;;9.25;7.00;;;19.70;99.90;;;;;;7346890;32;20553;-55
2023/06/26 03:48:42;;;;;;;8.88;6.20;;;19.80;99.90;;;;;;7337511;32;20241;-55
2023/06/26 03:52:44;;;;;;;7.32;6.47;;;19.90;99.90;;;;;;7344092;32;20265;-55
2023/06/26 03:56:46;;;;;;;8.43;6.45;;;20.20;99.90;;;;;;7336736;32;20166;-55
2023/06/26 04:00:48;;;;;;;11.65;6.70;;;20.30;99.90;;;;;;7345880;32;20273;-55
2023/06/26 04:04:49;;;;;;;8.52;6.28;;;20.40;99.90;;;;;;7342494;32;20103;-55
2023/06/26 04:08:51;;;;;;;10.07;6.35;;;20.40;99.90;;;;;;7330728;32;20142;-55
2023/06/26 04:12:53;;;;;;;7.85;6.30;;;20.50;99.90;;;;;;7347290;32;20125;-55
2023/06/26 04:16:55;;;;;;;13.38;7.07;;;20.60;99.90;;;;;;7349602;32;20138;-55
2023/06/26 04:21:11;;;;;;;9.25;6.93;;;20.60;99.90;;;;;;7337307;32;20151;-56
2023/06/26 04:25:13;;;;;;;10.10;6.97;;;20.70;99.90;;;;;;7328657;32;20431;-55
2023/06/26 04:29:15;;;;;;;8.15;6.28;;;20.80;99.90;;;;;;7350931;32;20130;-55
2023/06/26 04:33:17;;;;;;;6.30;5.70;;;20.80;99.90;;;;;;7337179;32;20206;-55
2023/06/26 04:37:19;;;;;;;7.55;6.18;;;20.90;99.90;;;;;;7330791;32;20482;-54
2023/06/26 04:41:21;;;;;;;8.45;5.65;;;21.00;99.90;;;;;;7339744;32;20135;-54
2023/06/26 04:45:23;;;;;;;6.72;5.68;;;21.10;99.90;;;;;;7340469;32;20297;-54
2023/06/26 04:49:27;;;;;;;9.05;6.28;;;21.20;99.90;;;;;;7341878;32;20108;-56
2023/06/26 04:53:29;;;;;;;8.98;5.95;;;21.30;99.90;;;;;;7351611;32;20107;-56
2023/06/26 04:57:31;;;;;;;8.73;5.32;;;21.40;99.90;;;;;;7352616;32;20206;-55
2023/06/26 05:01:32;;;;;;;10.30;5.03;;;21.40;99.90;;;;;;7350778;32;20202;-56
2023/06/26 05:05:34;;;;;;;6.80;5.10;;;21.40;99.90;;;;;;7350453;32;20126;-55
2023/06/26 05:09:36;;;;;;;6.95;5.47;;;21.60;99.90;;;;;;7351556;32;20103;-56
2023/06/26 05:13:38;;;;;;;9.55;5.05;;;21.70;99.90;;;;;;7351296;32;20202;-56
2023/06/26 05:17:40;;;;;;;14.43;5.65;;;21.80;99.90;;;;;;7346669;32;20135;-56
2023/06/26 05:21:42;;;;;;;10.13;4.75;;;21.90;99.90;;;;;;7345096;32;20175;-56
2023/06/26 05:25:44;;;;;;;7.37;4.70;;;21.80;99.90;;;;;;7350915;32;20104;-56
2023/06/26 05:29:46;;;;;;;6.72;5.00;;;21.70;99.90;;;;;;7332876;32;20216;-55
2023/06/26 05:33:48;;;;;;;9.10;4.80;;;21.60;99.90;;;;;;7349770;32;20758;-55
2023/06/26 05:37:51;;;;;;;8.25;4.65;;;21.40;99.90;;;;;;7352301;32;20108;-56
2023/06/26 05:41:54;;;;;;;7.95;4.80;;;21.20;99.90;;;;;;7348275;32;20156;-55
2023/06/26 05:45:57;;;;;;;9.38;5.28;;;21.10;99.90;;;;;;7349240;32;20279;-56
2023/06/26 05:49:59;;;;;;;7.90;5.00;;;21.20;99.90;;;;;;7358157;32;20576;-55
2023/06/26 05:54:01;;;;;;;8.27;4.62;;;21.60;99.90;;;;;;7354269;32;20313;-56
2023/06/26 05:58:03;;;;;;;6.60;4.68;;;22.20;99.90;;;;;;7349058;32;20099;-56
2023/06/26 06:02:05;;;;;;;7.50;4.53;;;22.30;99.90;;;;;;7347959;32;20178;-62
2023/06/26 06:06:07;;;;;;;6.40;4.60;;;22.30;99.90;;;;;;7349144;32;20488;-59
2023/06/26 06:10:09;;;;;;;5.68;4.45;;;22.00;99.90;;;;;;7351826;32;20242;-59
2023/06/26 06:14:11;;;;;;;8.52;4.20;;;21.80;99.90;;;;;;7351262;32;20336;-58
2023/06/26 06:18:13;;;;;;;8.48;4.50;;;21.90;99.90;;;;;;7347273;32;20096;-59
2023/06/26 06:22:16;;;;;;;6.87;4.32;;;21.90;99.90;;;;;;7347936;32;20543;-59
2023/06/26 06:26:18;;;;;;;9.50;4.50;;;21.80;99.90;;;;;;7350877;32;20273;-59
2023/06/26 06:30:19;;;;;;;7.68;4.80;;;21.40;99.90;;;;;;7352295;32;20118;-59
2023/06/26 06:34:41;;;;;;;8.65;5.00;;;21.00;99.90;;;;;;7352615;32;20514;-59
2023/06/26 06:38:43;;;;;;;10.07;4.80;;;20.90;99.90;;;;;;7352887;32;20670;-59
2023/06/26 06:42:45;;;;;;;10.77;5.40;;;21.10;99.90;;;;;;7353560;32;20175;-59
2023/06/26 06:46:47;;;;;;;8.80;4.35;;;21.30;99.90;;;;;;7349451;32;20491;-59
2023/06/26 06:50:49;;;;;;;9.10;5.32;;;21.40;99.90;;;;;;7347022;32;20134;-58
2023/06/26 06:54:55;;;;;;;8.13;4.75;;;21.40;99.90;;;;;;7347379;32;20559;-59
2023/06/26 06:58:57;;;;;;;11.93;5.07;;;21.40;99.90;;;;;;7347904;32;20126;-59
2023/06/26 07:03:00;;;;;;;9.18;4.93;;;21.40;99.90;;;;;;7341845;32;20203;-59
2023/06/26 07:07:02;;;;;;;9.25;4.78;;;21.70;99.90;;;;;;7347688;32;20182;-58
2023/06/26 07:11:04;;;;;;;12.00;5.53;;;22.00;99.90;;;;;;7338874;32;20111;-58
2023/06/26 07:15:06;;;;;;;15.75;4.80;;;22.10;99.90;;;;;;7342216;32;20616;-60
2023/06/26 07:19:08;;;;;;;12.70;5.03;;;22.10;99.90;;;;;;7344286;32;20197;-59
2023/06/26 07:23:10;;;;;;;8.70;4.95;;;22.00;99.90;;;;;;7340388;32;20177;-60
2023/06/26 07:27:12;;;;;;;11.77;5.45;;;22.00;99.90;;;;;;7334028;32;20479;-59
2023/06/26 07:31:14;;;;;;;12.60;5.18;;;22.20;99.90;;;;;;7343691;32;20199;-59
2023/06/26 07:35:18;;;;;;;13.13;4.97;;;22.40;99.90;;;;;;7343855;32;20277;-59
2023/06/26 07:39:20;;;;;;;9.98;4.65;;;22.30;99.90;;;;;;7342979;32;20121;-60
2023/06/26 07:43:24;;;;;;;12.15;5.30;;;22.30;99.90;;;;;;7322824;32;20137;-60
2023/06/26 07:47:26;;;;;;;9.88;5.37;;;22.20;99.90;;;;;;7344947;32;20095;-59
2023/06/26 07:51:28;;;;;;;17.40;5.70;;;22.20;99.90;;;;;;7340168;32;20176;-59
2023/06/26 07:55:30;;;;;;;11.70;6.05;;;22.20;99.90;;;;;;7340986;32;20625;-55
2023/06/26 07:59:31;;;;;;;12.25;5.80;;;22.10;99.90;;;;;;7336723;32;20125;-55
2023/06/26 08:03:33;;;;;;;12.07;5.93;;;22.20;99.90;;;;;;7340073;32;20130;-55
2023/06/26 08:07:36;;;;;;;13.80;5.80;;;22.10;99.90;;;;;;7328573;32;20099;-56
2023/06/26 08:11:38;;;;;;;13.18;6.00;;;22.00;99.90;;;;;;7337554;32;20768;-56
2023/06/26 08:15:40;;;;;;;14.30;5.78;;;22.10;99.90;;;;;;7344342;32;20171;-55
2023/06/26 08:19:43;;;;;;;16.50;5.97;;;22.40;99.90;;;;;;7333713;32;20174;-56
2023/06/26 08:23:45;;;;;;;14.23;6.43;;;22.80;99.90;;;;;;7340179;32;20207;-56
2023/06/26 08:27:47;;;;;;;8.68;4.75;;;22.70;99.90;;;;;;7343169;32;20557;-56
2023/06/26 08:31:48;;;;;;;11.77;5.10;;;22.50;99.90;;;;;;7351280;32;20197;-56
2023/06/26 08:35:50;;;;;;;14.90;5.87;;;22.50;99.90;;;;;;7345221;32;20145;-55
2023/06/26 08:39:52;;;;;;;11.55;4.90;;;22.50;99.90;;;;;;7339469;32;20160;-55
2023/06/26 08:43:54;;;;;;;11.52;5.10;;;22.10;99.90;;;;;;7347368;32;20095;-56
2023/06/26 08:48:00;;;;;;;9.98;4.93;;;21.80;99.90;;;;;;7352119;32;20453;-56
2023/06/26 08:52:12;;;;;;;12.93;4.90;;;22.00;99.90;;;;;;7345117;32;20566;-56
2023/06/26 08:56:17;;;;;;;12.77;5.15;;;22.30;99.90;;;;;;7344142;32;20096;-56
2023/06/26 09:00:20;;;;;;;10.02;4.62;;;22.50;99.90;;;;;;7346623;32;20266;-56
2023/06/26 09:04:21;;;;;;;9.32;4.60;;;23.00;99.90;;;;;;7353067;32;20463;-56
2023/06/26 09:08:23;;;;;;;14.25;4.70;;;23.20;99.90;;;;;;7349463;32;20111;-56
2023/06/26 09:12:28;;;;;;;11.82;4.10;;;23.20;99.90;;;;;;7335077;32;20115;-56
2023/06/26 09:16:29;;;;;;;10.75;4.05;;;23.10;99.90;;;;;;7344525;32;20107;-56
2023/06/26 09:20:34;;;;;;;12.77;4.10;;;23.30;99.90;;;;;;7351490;32;20234;-56
2023/06/26 09:24:36;;;;;;;12.13;3.55;;;23.00;99.90;;;;;;7348108;32;20126;-56
2023/06/26 09:28:38;;;;;;;11.88;3.33;;;23.40;99.90;;;;;;7353441;32;20197;-56
2023/06/26 09:32:40;;;;;;;12.60;4.05;;;23.50;99.90;;;;;;7350378;32;20125;-56
2023/06/26 09:36:46;;;;;;;8.63;3.40;;;23.50;99.90;;;;;;7339616;32;20146;-56
2023/06/26 09:40:48;;;;;;;11.75;3.30;;;23.70;99.90;;;;;;7355351;32;20227;-56
2023/06/26 09:44:51;;;;;;;9.75;3.58;;;24.50;99.90;;;;;;7355363;32;20092;-56
2023/06/26 09:49:05;;;;;;;9.35;3.40;;;24.70;99.90;;;;;;7350632;32;21864;-56
2023/06/26 09:53:13;;;;;;;10.20;3.03;;;24.60;99.90;;;;;;7354052;32;20252;-56
2023/06/26 09:57:19;;;;;;;7.00;2.87;;;24.60;99.90;;;;;;7343931;32;20494;-56
2023/06/26 10:01:21;;;;;;;9.85;3.05;;;24.30;99.90;;;;;;7336789;32;20132;-56
2023/06/26 10:05:23;;;;;;;8.43;2.70;;;24.60;99.90;;;;;;7349308;32;20144;-56
2023/06/26 10:09:25;;;;;;;8.63;3.12;;;25.20;99.90;;;;;;7353782;32;20218;-56
2023/06/26 10:13:38;;;;;;;8.23;3.35;;;24.90;99.90;;;;;;7346269;32;20219;-56
2023/06/26 10:17:42;;;;;;;7.03;2.80;;;25.10;99.90;;;;;;7347474;32;20095;-57
2023/06/26 10:21:44;;;;;;;6.75;2.75;;;25.20;99.90;;;;;;7344835;32;20695;-56
2023/06/26 10:25:48;;;;;;;9.38;2.92;;;25.50;99.90;;;;;;7349337;32;20103;-56
2023/06/26 10:29:56;;;;;;;6.43;2.65;;;25.60;99.90;;;;;;7343842;32;20127;-56
2023/06/26 10:33:58;;;;;;;6.40;2.33;;;25.20;99.90;;;;;;7344971;32;20096;-57
2023/06/26 10:38:04;;;;;;;5.75;2.20;;;25.50;99.90;;;;;;7345226;32;20111;-56
2023/06/26 10:42:10;;;;;;;6.10;1.67;;;25.40;99.90;;;;;;7348018;32;20104;-56
2023/06/26 10:46:15;;;;;;;5.53;2.17;;;25.40;99.90;;;;;;7348184;32;20168;-56
2023/06/26 10:50:31;;;;;;;6.32;1.80;;;25.90;99.90;;;;;;7341770;32;20147;-56
2023/06/26 10:54:33;;;;;;;8.48;2.30;;;25.90;99.90;;;;;;7348996;32;20130;-56
2023/06/26 10:58:41;;;;;;;4.22;2.22;;;25.80;99.90;;;;;;7349551;32;20800;-56
2023/06/26 11:02:52;;;;;;;8.40;2.08;;;25.30;99.90;;;;;;7349991;32;20151;-56
2023/06/26 11:07:21;;;;;;;5.12;1.65;;;24.80;99.90;;;;;;7327203;32;20545;-56
2023/06/26 11:11:52;;;;;;;4.43;1.70;;;25.00;99.90;;;;;;7345949;32;20248;-56
2023/06/26 11:15:56;;;;;;;4.82;2.10;;;25.60;99.90;;;;;;7353427;32;20095;-56
2023/06/26 11:19:58;;;;;;;5.62;2.20;;;26.10;99.90;;;;;;7351206;32;20326;-57
2023/06/26 11:24:03;;;;;;;5.50;1.58;;;25.30;99.90;;;;;;7335333;32;20141;-56
2023/06/26 11:28:05;;;;;;;6.47;1.58;;;24.10;99.90;;;;;;7347656;32;20422;-56
2023/06/26 11:32:07;;;;;;;5.72;1.60;;;24.50;99.90;;;;;;7341621;32;20245;-56
2023/06/26 11:36:09;;;;;;;6.37;1.70;;;24.90;99.90;;;;;;7326463;32;20209;-56
2023/06/26 11:40:21;;;;;;;2.15;1.00;;;25.30;99.90;;;;;;7338584;32;20100;-56
2023/06/26 11:44:23;;;;;;;1.87;1.00;;;25.30;98.30;;;;;;7341220;32;20170;-56
2023/06/26 11:48:25;;;;;;;4.68;1.15;;;25.10;97.00;;;;;;7348817;32;20210;-56
2023/06/26 11:52:27;;;;;;;3.70;1.30;;;25.40;97.90;;;;;;7343170;32;20232;-57
2023/06/26 11:56:29;;;;;;;4.60;1.45;;;25.70;99.40;;;;;;7339526;32;20131;-57
2023/06/26 12:00:32;;;;;;;3.12;1.10;;;25.20;98.10;;;;;;7341574;32;20192;-57
2023/06/26 12:04:41;;;;;;;6.90;1.05;;;25.10;99.90;;;;;;7351772;32;20205;-58
2023/06/26 12:08:43;;;;;;;2.45;1.08;;;25.00;99.90;;;;;;7332083;32;20123;-53
2023/06/26 12:12:46;;;;;;;2.15;0.95;;;24.60;99.50;;;;;;7348461;32;20210;-54
2023/06/26 12:16:48;;;;;;;6.22;1.08;;;24.50;99.90;;;;;;7345208;32;20166;-54
2023/06/26 12:20:49;;;;;;;5.40;1.10;;;24.10;99.90;;;;;;7343393;32;20628;-54
2023/06/26 12:24:51;;;;;;;4.22;0.90;;;23.70;99.90;;;;;;7344678;32;20115;-54
2023/06/26 12:28:53;;;;;;;6.75;1.00;;;23.90;99.70;;;;;;7346277;32;20103;-54
2023/06/26 12:32:55;;;;;;;3.28;0.90;;;24.40;99.90;;;;;;7342160;32;20782;-54
2023/06/26 12:37:02;;;;;;;8.65;1.00;;;24.70;99.00;;;;;;7342308;32;20148;-53
2023/06/26 12:41:03;;;;;;;;;;;24.50;97.20;;;;;;7344738;32;20326;-53
2023/06/26 12:45:13;;;;;;;2.95;0.90;;;24.20;94.90;;;;;;7347813;32;20047;-54
2023/06/26 12:49:37;;;;;;;1.98;0.80;;;24.10;98.50;;;;;;7344481;32;20143;-54
2023/06/26 12:53:42;;;;;;;4.00;0.80;;;24.30;96.70;;;;;;7350027;32;20171;-57
2023/06/26 12:57:44;;;;;;;2.95;0.70;;;24.30;95.50;;;;;;7346350;32;20507;-57
2023/06/26 13:01:46;;;;;;;4.28;0.95;;;25.00;96.00;;;;;;7348554;32;20122;-58
2023/06/26 13:05:48;;;;;;;5.55;0.85;;;26.00;94.10;;;;;;7342475;32;20095;-58
2023/06/26 13:09:50;;;;;;;1.08;0.73;;;26.50;92.30;;;;;;7346527;32;20269;-59
2023/06/26 13:13:51;;;;;;;6.72;0.88;;;26.70;92.40;;;;;;7350625;32;20122;-59
2023/06/26 13:18:11;;;;;;;5.28;0.80;;;26.20;90.50;;;;;;7348864;32;20531;-57
2023/06/26 13:22:13;;;;;;;1.77;0.65;;;25.40;87.20;;;;;;7353506;32;20104;-58
2023/06/26 13:26:15;;;;;;;5.90;1.00;;;24.60;91.10;;;;;;7358674;32;20731;-57
2023/06/26 13:30:36;;;;;;;5.07;1.02;;;24.40;90.40;;;;;;7348513;32;20127;-58
2023/06/26 13:34:38;;;;;;;5.20;0.85;;;24.10;93.30;;;;;;7348369;32;20103;-57
2023/06/26 13:38:40;;;;;;;2.35;1.00;;;24.00;92.40;;;;;;7353697;32;20230;-56
2023/06/26 13:42:43;;;;;;;2.72;1.00;;;24.00;92.90;;;;;;7346142;32;20784;-56
2023/06/26 13:46:46;;;;;;;3.28;0.90;;;23.80;93.90;;;;;;7341587;32;20149;-57
2023/06/26 13:50:48;;;;;;;4.60;0.90;;;23.90;92.50;;;;;;7341475;32;20638;-56
2023/06/26 13:54:55;;;;;;;6.90;1.08;;;24.00;94.30;;;;;;7350025;32;20168;-57
2023/06/26 13:58:58;;;;;;;8.68;1.05;;;23.90;92.20;;;;;;7346582;32;20516;-57
2023/06/26 14:03:00;;;;;;;4.93;1.00;;;24.10;93.70;;;;;;7335862;32;20217;-56
2023/06/26 14:07:03;;;;;;;3.10;0.80;;;24.60;87.40;;;;;;7351269;32;20095;-55
2023/06/26 14:11:05;;;;;;;6.53;1.00;;;24.60;87.60;;;;;;7349622;32;20103;-56
2023/06/26 14:15:07;;;;;;;2.92;0.90;;;24.60;84.90;;;;;;7350457;32;20102;-56
2023/06/26 14:19:15;;;;;;;8.18;1.00;;;24.70;85.40;;;;;;7345127;32;20100;-56
2023/06/26 14:23:16;;;;;;;2.72;0.70;;;25.00;86.10;;;;;;7348749;32;20126;-55
2023/06/26 14:27:18;;;;;;;4.30;0.90;;;25.00;84.30;;;;;;7338225;32;20179;-56
2023/06/26 14:31:21;;;;;;;8.07;1.05;;;24.90;86.10;;;;;;7349662;32;20261;-57
2023/06/26 14:35:22;;;;;;;4.70;1.00;;;24.80;86.00;;;;;;7346833;32;20131;-57
2023/06/26 14:39:24;;;;;;;6.60;1.10;;;24.30;88.80;;;;;;7352816;32;20633;-56
2023/06/26 14:43:26;;;;;;;1.25;0.80;;;24.60;90.70;;;;;;7355153;32;20219;-57
2023/06/26 14:47:29;;;;;;;3.87;0.80;;;24.50;88.30;;;;;;7338552;32;20193;-60
2023/06/26 14:51:31;;;;;;;2.15;0.73;;;24.90;84.40;;;;;;7353211;32;20221;-57
2023/06/26 14:55:32;;;;;;;3.22;0.95;;;25.10;84.70;;;;;;7346372;32;20140;-56
2023/06/26 14:59:34;;;;;;;5.68;0.93;;;24.40;85.20;;;;;;7343227;32;20311;-56
2023/06/26 15:03:36;;;;;;;2.12;0.77;;;23.60;90.80;;;;;;7350859;32;20127;-57
2023/06/26 15:07:38;;;;;;;2.00;0.70;;;23.50;90.70;;;;;;7346648;32;20193;-56
2023/06/26 15:11:40;;;;;;;2.80;0.80;;;23.30;89.60;;;;;;7354445;32;20212;-56
2023/06/26 15:15:41;;;;;;;2.50;0.70;;;23.20;90.80;;;;;;7354596;32;20130;-56
2023/06/26 15:19:43;;;;;;;3.08;0.85;;;23.20;87.90;;;;;;7352262;32;20122;-56
2023/06/26 15:23:46;;;;;;;3.17;0.80;;;23.40;90.50;;;;;;7347085;32;20794;-57
2023/06/26 15:27:50;;;;;;;3.53;0.80;;;23.30;89.10;;;;;;7345385;32;20553;-56
2023/06/26 15:31:53;;;;;;;3.45;0.90;;;23.00;89.10;;;;;;7340875;32;20196;-56
2023/06/26 15:35:55;;;;;;;4.45;0.88;;;22.80;91.00;;;;;;7348815;32;20096;-56
2023/06/26 15:39:57;;;;;;;3.58;0.75;;;22.80;90.50;;;;;;7330485;32;20499;-56
2023/06/26 15:43:59;;;;;;;3.10;0.93;;;22.90;91.70;;;;;;7335393;32;20422;-56
2023/06/26 15:48:01;;;;;;;2.53;0.80;;;22.80;90.60;;;;;;7337467;32;20092;-55
2023/06/26 15:52:03;;;;;;;2.58;0.88;;;22.70;87.60;;;;;;7346413;32;20199;-56
2023/06/26 15:56:10;;;;;;;3.58;0.90;;;22.60;89.80;;;;;;7329679;32;20088;-56
2023/06/26 16:00:12;;;;;;;;;;;22.70;91.70;;;;;;7336063;32;20151;-55
2023/06/26 16:04:14;;;;;;;3.10;1.10;;;22.60;90.00;;;;;;7346091;32;20030;-57
2023/06/26 16:08:15;;;;;;;2.97;0.85;;;22.50;92.00;;;;;;7345055;32;20338;-56
2023/06/26 16:12:17;;;;;;;5.18;0.90;;;22.60;91.70;;;;;;7349101;32;20129;-55
2023/06/26 16:16:19;;;;;;;2.15;1.00;;;22.50;92.10;;;;;;7349113;32;20311;-56
2023/06/26 16:20:21;;;;;;;2.00;1.10;;;22.50;92.10;;;;;;7344326;32;20157;-55
2023/06/26 16:24:23;;;;;;;1.65;0.80;;;22.50;91.50;;;;;;7345620;32;20134;-55
2023/06/26 16:28:25;;;;;;;3.80;0.82;;;22.30;91.60;;;;;;7345483;32;20273;-55
2023/06/26 16:32:26;;;;;;;1.70;0.60;;;22.20;91.50;;;;;;7346271;32;20582;-56
2023/06/26 16:36:28;;;;;;;1.60;0.65;;;22.10;92.00;;;;;;7349841;32;20114;-56
2023/06/26 16:40:30;;;;;;;2.62;0.70;;;21.90;90.70;;;;;;7345994;32;20529;-55
2023/06/26 16:44:32;;;;;;;3.80;0.80;;;21.80;90.60;;;;;;7344972;32;20112;-55
2023/06/26 16:48:33;;;;;;;1.30;0.50;;;21.80;90.70;;;;;;7342308;32;20218;-55
2023/06/26 16:52:35;;;;;;;3.10;0.95;;;21.50;91.20;;;;;;7351718;32;20103;-55
2023/06/26 16:56:37;;;;;;;2.42;0.70;;;21.30;91.60;;;;;;7353945;32;20161;-55
2023/06/26 17:00:39;;;;;;;2.90;0.77;;;21.30;92.30;;;;;;7351148;32;20140;-56
2023/06/26 17:04:41;;;;;;;2.40;0.65;;;21.40;91.10;;;;;;7354766;32;20145;-55
2023/06/26 17:08:43;;;;;;;3.95;0.98;;;21.40;91.10;;;;;;7359245;32;20103;-56
2023/06/26 17:12:45;;;;;;;2.00;0.70;;;21.10;91.40;;;;;;7355539;32;20529;-56
2023/06/26 17:16:46;;;;;;;2.47;1.15;;;21.10;92.30;;;;;;7353885;32;20163;-56
2023/06/26 17:20:48;;;;;;;5.35;1.00;;;21.10;92.10;;;;;;7354902;32;20161;-55
2023/06/26 17:24:50;;;;;;;1.85;0.80;;;21.00;91.90;;;;;;7357908;32;20216;-55
2023/06/26 17:28:52;;;;;;;4.15;0.60;;;21.00;93.50;;;;;;7354208;32;20148;-55
2023/06/26 17:32:54;;;;;;;2.95;1.35;;;21.00;93.80;;;;;;7353677;32;20108;-56
2023/06/26 17:36:56;;;;;;;2.85;1.48;;;20.80;94.20;;;;;;7356621;32;20272;-56
2023/06/26 17:40:58;;;;;;;4.37;1.25;;;20.90;96.50;;;;;;7336110;32;20118;-56
2023/06/26 17:44:59;;;;;;;2.33;1.20;;;20.80;96.10;;;;;;7353377;32;20172;-56
2023/06/26 17:49:01;;;;;;;4.43;1.65;;;20.80;97.20;;;;;;7356787;32;20189;-56
2023/06/26 17:53:03;;;;;;;6.30;1.35;;;20.90;97.70;;;;;;7351517;32;20096;-56
2023/06/26 17:57:05;;;;;;;5.87;1.10;;;20.80;96.60;;;;;;7347874;32;20244;-55
2023/06/26 18:01:07;;;;;;;4.37;1.40;;;20.80;98.00;;;;;;7347531;32;20194;-55
2023/06/26 18:05:09;;;;;;;4.30;1.60;;;20.70;98.00;;;;;;7350735;32;20239;-56
2023/06/26 18:09:11;;;;;;;3.97;1.40;;;20.70;98.60;;;;;;7335215;32;20205;-58
2023/06/26 18:13:13;;;;;;;3.78;1.83;;;20.60;99.00;;;;;;7344879;32;20122;-56
2023/06/26 18:17:15;;;;;;;5.82;1.90;;;20.60;99.90;;;;;;7351393;32;20538;-57
2023/06/26 18:21:17;;;;;;;4.68;1.37;;;20.60;99.90;;;;;;7352605;32;20466;-57
2023/06/26 18:25:18;;;;;;;9.27;1.75;;;20.70;99.90;;;;;;7351507;32;20103;-59
2023/06/26 18:29:20;;;;;;;5.25;1.48;;;20.60;99.90;;;;;;7345980;32;20202;-55
2023/06/26 18:33:22;;;;;;;3.87;1.65;;;20.60;99.90;;;;;;7349282;32;20103;-56
2023/06/26 18:37:24;;;;;;;6.25;1.45;;;20.70;99.90;;;;;;7347057;32;20643;-56
2023/06/26 18:41:25;;;;;;;2.75;1.10;;;20.60;99.90;;;;;;7349580;32;20373;-56
2023/06/26 18:45:27;;;;;;;4.45;1.15;;;20.50;99.90;;;;;;7345570;32;20208;-58
2023/06/26 18:49:29;;;;;;;3.15;1.20;;;20.40;99.90;;;;;;7341397;32;20226;-57
2023/06/26 18:53:31;;;;;;;2.97;1.10;;;20.30;99.90;;;;;;7336734;32;20794;-56
2023/06/26 18:57:33;;;;;;;3.28;0.95;;;20.10;99.90;;;;;;7335792;32;20170;-58
2023/06/26 19:01:34;;;;;;;2.62;1.02;;;20.10;99.90;;;;;;7349106;32;20112;-56
2023/06/26 19:05:36;;;;;;;3.60;1.15;;;20.00;99.90;;;;;;7350889;32;20111;-56
2023/06/26 19:09:38;;;;;;;4.22;1.15;;;20.00;99.90;;;;;;7348454;32;20100;-57
2023/06/26 19:13:40;;;;;;;5.93;1.10;;;20.00;99.90;;;;;;7343896;32;20172;-57
2023/06/26 19:17:42;;;;;;;1.75;0.68;;;20.00;99.90;;;;;;7338626;32;20966;-55
2023/06/26 19:21:43;;;;;;;3.45;1.17;;;19.90;99.90;;;;;;7347968;32;20127;-56
2023/06/26 19:25:46;;;;;;;2.12;0.70;;;19.80;99.90;;;;;;7344724;32;20545;-56
2023/06/26 19:29:48;;;;;;;4.18;1.02;;;19.70;99.90;;;;;;7322309;32;20389;-57
2023/06/26 19:33:49;;;;;;;3.40;0.80;;;19.60;99.90;;;;;;7329190;32;20229;-57
2023/06/26 19:37:51;;;;;;;3.00;0.75;;;19.50;99.90;;;;;;7330978;32;20131;-57
2023/06/26 19:42:06;;;;;;;3.58;1.05;;;19.30;99.90;;;;;;7328297;32;20108;-57
2023/06/26 19:46:08;;;;;;;3.60;0.80;;;19.10;99.90;;;;;;7334078;32;20186;-56
2023/06/26 19:50:12;;;;;;;2.65;0.70;;;19.00;99.90;;;;;;7329804;32;20194;-57
2023/06/26 19:54:14;;;;;;;4.65;0.90;;;18.80;99.90;;;;;;7327927;32;20178;-56
2023/06/26 19:58:15;;;;;;;3.78;1.05;;;18.60;99.90;;;;;;7332210;32;20303;-56
2023/06/26 20:02:17;;;;;;;3.80;0.80;;;18.50;99.90;;;;;;7331660;32;20206;-56
2023/06/26 20:06:19;;;;;;;2.65;0.95;;;18.40;99.90;;;;;;7334073;32;20712;-55
2023/06/26 20:10:21;;;;;;;1.23;0.70;;;18.30;99.90;;;;;;7331313;32;20217;-56
2023/06/26 20:14:23;;;;;;;2.17;0.80;;;18.20;99.90;;;;;;7330964;32;20194;-56
2023/06/26 20:18:24;;;;;;;3.45;0.90;;;18.10;99.90;;;;;;7324449;32;20218;-54
2023/06/26 20:22:26;;;;;;;2.40;0.88;;;18.10;99.90;;;;;;7334293;32;20535;-55
2023/06/26 20:26:28;;;;;;;3.47;0.73;;;18.00;99.90;;;;;;7350050;32;20242;-56
2023/06/26 20:30:30;;;;;;;1.95;0.80;;;18.00;99.90;;;;;;7350239;32;20111;-55
2023/06/26 20:34:31;;;;;;;4.12;1.12;;;17.90;99.90;;;;;;7350990;32;20124;-55
2023/06/26 20:38:33;;;;;;;2.95;1.15;;;17.80;99.90;;;;;;7346418;32;20188;-55
2023/06/26 20:42:36;;;;;;;2.35;1.10;;;17.70;99.90;;;;;;7350893;32;20095;-55
2023/06/26 20:46:38;;;;;;;2.20;1.00;;;17.50;99.90;;;;;;7346068;32;20125;-56
2023/06/26 20:50:40;;;;;;;3.53;0.90;;;17.30;99.90;;;;;;7346708;32;20222;-55
2023/06/26 20:54:42;;;;;;;3.15;0.90;;;17.10;99.90;;;;;;7347279;32;20127;-55
2023/06/26 20:58:44;;;;;;;3.08;1.00;;;16.80;99.90;;;;;;7349299;32;20160;-55
2023/06/26 21:02:46;;;;;;;3.65;0.85;;;16.70;99.90;;;;;;7352356;32;20183;-55